Terminal Aerodrome Forecast
Issued by NWS Wilmington, OH

Current Version | Previous Version | Graphics & Text | Print | Product List | Glossary On
Versions: 1 2 3 4 5 6 7 8 9 10 11 12 13 14 15 16 17 18 19
135
FTUS41 KILN 150539
TAFILN
TAF
KILN 150539Z 1506/1606 VRB03KT P6SM BKN150
     FM151200 24011KT P6SM BKN040
     FM151700 26015G25KT P6SM BKN020 OVC035
     FM152200 25010KT P6SM OVC040
     FM160300 22011KT P6SM OVC050=

USA.gov is the U.S. government's official web portal to all federal, state and local government web resources and services.